Time;durP1;ratioP1;P1;durP2;ratioP2;P2;SDS_P1;SDS_P2;PMS_P1;PMS_P2;Temp;Humidity;BMP_temperature;BMP_pressure;BME280_temperature;BME280_humidity;BME280_pressure;Samples;Min_cycle;Max_cycle;Signal;HPM_P1;HPM_P2
2022/11/13 00:01:19;;;;;;;;;77.67;68.33;;;;;12.88;61.58;101966.41;4959816;28;45236;-65
2022/11/13 00:03:45;;;;;;;;;77.00;69.00;;;;;12.87;61.19;101974.31;4960101;28;46399;-65
2022/11/13 00:06:12;;;;;;;;;77.33;67.67;;;;;12.83;61.45;101971.69;4959920;28;45306;-64
2022/11/13 00:08:37;;;;;;;;;77.67;67.33;;;;;12.81;61.21;101972.59;4962687;28;45371;-65
2022/11/13 00:11:13;;;;;;;;;75.67;63.33;;;;;12.80;61.30;101973.47;4962999;28;46228;-65
2022/11/13 00:13:39;;;;;;;;;75.33;59.67;;;;;12.77;61.66;101977.00;4961807;28;46811;-65
2022/11/13 00:16:08;;;;;;;;;75.33;62.67;;;;;12.76;61.40;101969.09;4961986;28;45809;-65
2022/11/13 00:18:34;;;;;;;;;70.50;55.75;;;;;12.73;61.55;101970.00;4962994;28;45417;-65
2022/11/13 00:21:08;;;;;;;;;69.00;53.50;;;;;12.70;61.54;101955.94;4961632;28;46021;-65
2022/11/13 00:23:35;;;;;;;;;66.75;53.00;;;;;12.68;61.36;101956.81;4962650;28;46252;-65
2022/11/13 00:26:15;;;;;;;;;66.25;52.75;;;;;12.67;61.62;101946.28;4962972;28;45287;-65
2022/11/13 00:28:41;;;;;;;;;65.00;51.25;;;;;12.64;61.41;101944.53;4962869;28;45236;-66
2022/11/13 00:31:08;;;;;;;;;68.00;52.75;;;;;12.64;61.53;101943.63;4963004;28;45248;-65
2022/11/13 00:33:33;;;;;;;;;66.50;54.00;;;;;12.62;61.42;101935.72;4962700;28;45498;-65
2022/11/13 00:36:07;;;;;;;;;57.75;46.25;;;;;12.60;61.43;101936.63;4962922;28;45251;-65
2022/11/13 00:38:33;;;;;;;;;65.00;52.00;;;;;12.58;61.59;101939.28;4962655;28;45467;-65
2022/11/13 00:40:59;;;;;;;;;63.00;50.00;;;;;12.57;61.36;101936.66;4962729;28;45290;-64
2022/11/13 00:43:25;;;;;;;;;64.25;51.00;;;;;12.55;61.51;101935.75;4961235;28;45303;-64
2022/11/13 00:45:50;;;;;;;;;64.50;49.50;;;;;12.53;61.71;101930.50;4962766;28;45362;-64
2022/11/13 00:48:16;;;;;;;;;61.00;50.00;;;;;12.53;61.56;101933.13;4962684;28;45377;-64
2022/11/13 00:50:41;;;;;;;;;59.25;47.00;;;;;12.50;61.65;101928.75;4962663;28;45256;-65
2022/11/13 00:53:06;;;;;;;;;62.25;50.25;;;;;12.50;61.59;101928.75;4962183;28;46118;-65
2022/11/13 00:55:32;;;;;;;;;64.00;51.00;;;;;12.46;61.75;101913.81;4962389;28;45331;-65
2022/11/13 00:57:57;;;;;;;;;65.25;53.00;;;;;12.45;61.55;101912.06;4962456;28;45716;-65
2022/11/13 01:00:22;;;;;;;;;68.00;53.25;;;;;12.44;61.66;101907.69;4962403;28;45302;-65
2022/11/13 01:02:48;;;;;;;;;60.50;48.75;;;;;12.44;61.81;101910.31;4961941;28;53072;-65
2022/11/13 01:05:13;;;;;;;;;59.00;46.75;;;;;12.44;61.54;101901.50;4962397;28;45244;-65
2022/11/13 01:07:38;;;;;;;;;54.50;44.25;;;;;12.42;61.79;101893.63;4962261;28;45252;-65
2022/11/13 01:10:05;;;;;;;;;58.75;48.00;;;;;12.38;61.75;101888.34;4962381;28;45449;-65
2022/11/13 01:12:30;;;;;;;;;62.00;48.00;;;;;12.37;61.47;101876.06;4961903;28;46145;-65
2022/11/13 01:14:55;;;;;;;;;59.00;46.75;;;;;12.38;61.88;101878.69;4962507;28;45259;-65
2022/11/13 01:17:21;;;;;;;;;57.25;47.25;;;;;12.37;61.66;101881.34;4961450;28;45251;-65
2022/11/13 01:19:46;;;;;;;;;56.50;46.00;;;;;12.35;61.60;101879.59;4960902;28;45259;-65
2022/11/13 01:22:12;;;;;;;;;53.00;42.00;;;;;12.34;61.82;101880.47;4961820;28;47072;-65
2022/11/13 01:24:37;;;;;;;;;59.00;46.75;;;;;12.33;61.86;101883.97;4960982;28;45315;-64
2022/11/13 01:27:02;;;;;;;;;55.75;46.00;;;;;12.31;61.92;101888.41;4962065;28;45246;-65
2022/11/13 01:29:27;;;;;;;;;56.75;44.75;;;;;12.29;61.86;101879.59;4962148;28;45501;-65
2022/11/13 01:31:53;;;;;;;;;58.25;46.50;;;;;12.30;61.94;101883.09;4960522;28;45351;-65
2022/11/13 01:34:18;;;;;;;;;55.00;45.25;;;;;12.28;61.77;101877.84;4962139;28;45371;-65
2022/11/13 01:36:43;;;;;;;;;54.50;44.50;;;;;12.25;61.72;101875.25;4960538;28;45383;-65
2022/11/13 01:39:10;;;;;;;;;55.50;45.50;;;;;12.25;61.97;101880.50;4961926;28;45421;-65
2022/11/13 01:41:36;;;;;;;;;51.25;42.25;;;;;12.24;62.01;101875.22;4961524;28;45298;-65
2022/11/13 01:44:02;;;;;;;;;55.75;45.00;;;;;12.23;61.89;101878.75;4961912;28;45421;-64
2022/11/13 01:46:29;;;;;;;;;53.50;43.75;;;;;12.20;62.00;101877.00;4961745;28;45276;-65
2022/11/13 01:49:00;;;;;;;;;58.50;46.75;;;;;12.19;61.96;101876.13;4961773;28;45502;-65
2022/11/13 01:51:38;;;;;;;;;59.50;49.00;;;;;12.17;61.80;101869.97;4961776;28;45651;-65
2022/11/13 01:54:08;;;;;;;;;54.25;44.00;;;;;12.15;61.99;101874.38;4961589;28;45421;-64
2022/11/13 01:56:34;;;;;;;;;54.25;46.00;;;;;12.15;62.15;101873.47;4960520;28;45356;-65
2022/11/13 01:59:14;;;;;;;;;54.50;45.75;;;;;12.10;62.13;101868.25;4961240;28;45417;-64
2022/11/13 02:01:40;;;;;;;;;54.75;42.25;;;;;12.08;61.72;101862.09;4961675;28;45327;-65
2022/11/13 02:04:06;;;;;;;;;51.75;42.00;;;;;12.09;61.96;101853.31;4961419;28;45275;-65
2022/11/13 02:06:41;;;;;;;;;56.00;45.00;;;;;12.05;62.13;101856.84;4961460;28;45315;-64
2022/11/13 02:09:08;;;;;;;;;58.50;47.00;;;;;12.07;61.91;101862.09;4961550;28;45461;-65
2022/11/13 02:11:33;;;;;;;;;57.00;46.50;;;;;12.03;62.15;101864.72;4960014;28;46428;-65
2022/11/13 02:13:59;;;;;;;;;55.00;45.75;;;;;12.00;61.95;101853.34;4961360;28;45319;-64
2022/11/13 02:16:25;;;;;;;;;51.75;43.25;;;;;11.98;62.08;101855.97;4961424;28;45281;-65
2022/11/13 02:18:52;;;;;;;;;54.25;43.75;;;;;11.95;62.12;101853.31;4959715;28;45386;-65
2022/11/13 02:21:40;;;;;;;;;58.50;45.25;;;;;11.96;62.02;101847.22;4961399;28;45335;-65
2022/11/13 02:24:11;;;;;;;;;58.00;47.50;;;;;11.95;62.03;101845.41;4959846;28;45280;-65
2022/11/13 02:26:37;;;;;;;;;51.50;43.50;;;;;11.90;62.26;101846.28;4961169;28;45307;-65
2022/11/13 02:29:02;;;;;;;;;53.75;45.50;;;;;11.89;61.98;101850.69;4961146;28;45590;-65
2022/11/13 02:31:28;;;;;;;;;60.50;48.25;;;;;11.90;62.03;101847.19;4961147;28;46430;-65
2022/11/13 02:33:53;;;;;;;;;55.00;45.25;;;;;11.90;62.13;101844.56;4961288;28;45333;-65
2022/11/13 02:36:22;;;;;;;;;54.50;43.25;;;;;11.87;62.11;101847.19;4961323;28;45481;-65
2022/11/13 02:38:50;;;;;;;;;58.00;47.00;;;;;11.86;62.03;101840.16;4960859;28;45429;-65
2022/11/13 02:41:15;;;;;;;;;57.00;46.75;;;;;11.83;62.14;101833.13;4960924;28;45283;-65
2022/11/13 02:43:40;;;;;;;;;57.25;46.25;;;;;11.83;61.94;101834.91;4960895;28;49257;-64
2022/11/13 02:46:05;;;;;;;;;57.00;45.75;;;;;11.80;62.23;101829.66;4961038;28;45358;-64
2022/11/13 02:48:31;;;;;;;;;58.50;45.75;;;;;11.76;61.98;101822.63;4960996;28;45298;-65
2022/11/13 02:50:56;;;;;;;;;57.50;46.25;;;;;11.76;62.21;101835.78;4960828;28;46781;-65
2022/11/13 02:53:21;;;;;;;;;59.50;48.25;;;;;11.69;62.28;101822.63;4959507;28;45718;-64
2022/11/13 02:55:47;;;;;;;;;61.00;47.25;;;;;11.69;61.96;101830.53;4960823;28;45315;-65
2022/11/13 02:58:12;;;;;;;;;59.25;47.50;;;;;11.70;62.12;101823.53;4961055;28;45310;-65
2022/11/13 03:00:37;;;;;;;;;60.75;49.00;;;;;11.67;62.10;101821.78;4959174;28;48056;-66
2022/11/13 03:03:03;;;;;;;;;63.25;50.25;;;;;11.65;62.18;101812.13;4960928;28;45248;-65
2022/11/13 03:05:28;;;;;;;;;65.25;50.00;;;;;11.63;62.35;101813.88;4960709;28;45339;-65
2022/11/13 03:07:53;;;;;;;;;60.00;47.75;;;;;11.60;62.16;101809.47;4960660;28;45169;-65
2022/11/13 03:10:19;;;;;;;;;64.00;51.00;;;;;11.59;62.17;101806.88;4960490;28;46279;-65
2022/11/13 03:12:45;;;;;;;;;65.00;52.25;;;;;11.58;62.09;101807.72;4960676;28;45247;-65
2022/11/13 03:15:10;;;;;;;;;65.75;51.75;;;;;11.55;62.04;101801.59;4960990;28;45235;-65
2022/11/13 03:17:36;;;;;;;;;61.00;48.25;;;;;11.53;62.08;101798.09;4960755;28;45223;-66
2022/11/13 03:20:02;;;;;;;;;65.00;51.00;;;;;11.49;62.28;101792.84;4960213;28;46325;-65
2022/11/13 03:22:28;;;;;;;;;57.50;46.00;;;;;11.48;61.97;101798.97;4960323;28;45317;-65
2022/11/13 03:24:53;;;;;;;;;62.25;48.25;;;;;11.48;62.10;101809.50;4960609;28;45219;-65
2022/11/13 03:27:19;;;;;;;;;56.00;46.00;;;;;11.45;62.12;101812.16;4960384;28;45433;-65
2022/11/13 03:29:44;;;;;;;;;58.25;46.75;;;;;11.41;61.94;101807.75;4960405;28;46247;-65
2022/11/13 03:32:09;;;;;;;;;58.00;44.50;;;;;11.38;62.06;101803.34;4960299;28;49223;-65
2022/11/13 03:34:35;;;;;;;;;57.00;44.50;;;;;11.39;62.06;101805.13;4960678;28;45271;-65
2022/11/13 03:37:00;;;;;;;;;58.25;46.50;;;;;11.36;62.01;101818.28;4960384;28;45444;-66
2022/11/13 03:39:25;;;;;;;;;58.00;45.00;;;;;11.36;62.16;101813.03;4960476;28;46429;-65
2022/11/13 03:41:50;;;;;;;;;55.00;44.25;;;;;11.32;62.05;101806.88;4962690;28;45274;-66
2022/11/13 03:44:16;;;;;;;;;52.50;42.25;;;;;11.29;62.33;101804.22;4962664;28;45315;-65
2022/11/13 03:46:41;;;;;;;;;54.00;45.00;;;;;11.28;62.19;101799.88;4963638;28;45671;-66
2022/11/13 03:49:06;;;;;;;;;49.25;40.75;;;;;11.28;62.11;101793.72;4963574;28;46413;-65
2022/11/13 03:51:32;;;;;;;;;49.25;40.75;;;;;11.26;62.19;101793.72;4963577;28;45239;-65
2022/11/13 03:53:59;;;;;;;;;51.00;41.00;;;;;11.24;62.21;101790.22;4963549;28;45293;-65
2022/11/13 03:56:24;;;;;;;;;48.00;38.50;;;;;11.23;62.12;101783.19;4963429;28;45222;-65
2022/11/13 03:58:50;;;;;;;;;51.25;40.50;;;;;11.21;62.09;101780.56;4963231;28;46102;-65
2022/11/13 04:01:15;;;;;;;;;46.00;39.00;;;;;11.18;62.05;101779.69;4962069;28;45287;-65
2022/11/13 04:03:40;;;;;;;;;49.00;40.50;;;;;11.20;62.24;101783.19;4962379;28;45181;-65
2022/11/13 04:06:06;;;;;;;;;47.00;37.25;;;;;11.19;62.23;101791.97;4961770;28;45473;-65
2022/11/13 04:08:31;;;;;;;;;49.50;39.25;;;;;11.14;62.41;101781.44;4963037;28;46012;-65
2022/11/13 04:11:11;;;;;;;;;47.50;37.25;;;;;11.17;62.21;101778.81;4963137;28;45232;-66
2022/11/13 04:13:36;;;;;;;;;49.75;39.50;;;;;11.16;62.52;101779.69;4963318;28;45457;-65
2022/11/13 04:16:03;;;;;;;;;43.50;37.00;;;;;11.15;62.55;101770.03;4963323;28;45390;-66
2022/11/13 04:18:28;;;;;;;;;44.50;36.00;;;;;11.14;62.39;101767.41;4963116;28;45367;-66
2022/11/13 04:21:04;;;;;;;;;48.00;40.50;;;;;11.16;62.33;101770.94;4961715;28;46059;-65
2022/11/13 04:23:30;;;;;;;;;43.25;37.50;;;;;11.13;62.37;101763.91;4962934;28;45264;-65
2022/11/13 04:25:56;;;;;;;;;43.75;36.00;;;;;11.16;62.44;101771.78;4962961;28;45168;-67
2022/11/13 04:28:22;;;;;;;;;45.50;37.00;;;;;11.13;62.24;101766.56;4962861;28;45309;-65
2022/11/13 04:30:47;;;;;;;;;42.00;34.75;;;;;11.14;62.57;101767.41;4963048;28;45283;-65
2022/11/13 04:33:13;;;;;;;;;36.25;30.75;;;;;11.14;62.44;101770.91;4963013;28;45235;-65
2022/11/13 04:35:40;;;;;;;;;40.25;34.00;;;;;11.14;62.43;101773.53;4963165;28;45289;-65
2022/11/13 04:38:06;;;;;;;;;39.00;35.00;;;;;11.14;62.58;101772.66;4962739;28;46246;-64
2022/11/13 04:40:31;;;;;;;;;40.75;34.75;;;;;11.13;62.38;101770.91;4962734;28;45369;-65
2022/11/13 04:42:56;;;;;;;;;37.75;32.25;;;;;11.13;62.42;101776.19;4962883;28;45805;-65
2022/11/13 04:45:25;;;;;;;;;40.00;33.50;;;;;11.12;62.48;101777.94;4962861;28;45259;-65
2022/11/13 04:47:50;;;;;;;;;35.75;34.00;;;;;11.13;62.36;101782.34;4962528;28;46021;-64
2022/11/13 04:50:16;;;;;;;;;36.25;34.00;;;;;11.12;62.47;101770.06;4962787;28;45237;-64
2022/11/13 04:52:42;;;;;;;;;30.25;28.00;;;;;11.11;62.60;101770.06;4959587;28;45284;-63
2022/11/13 04:55:09;;;;;;;;;37.50;33.25;;;;;11.10;62.53;101770.94;4962963;28;45218;-64
2022/11/13 04:57:34;;;;;;;;;36.00;33.50;;;;;11.09;62.49;101762.13;4962365;28;45311;-65
2022/11/13 05:00:00;;;;;;;;;37.25;32.50;;;;;11.03;62.61;101749.88;4962585;28;45351;-65
2022/11/13 05:02:26;;;;;;;;;35.00;29.75;;;;;11.07;62.63;101763.91;4962561;28;45325;-65
2022/11/13 05:04:51;;;;;;;;;33.50;30.25;;;;;11.05;62.62;101761.25;4962437;28;45247;-63
2022/11/13 05:07:17;;;;;;;;;35.25;32.00;;;;;11.06;62.51;101763.03;4943380;28;45452;-63
2022/11/13 05:09:42;;;;;;;;;36.50;32.25;;;;;11.06;62.48;101773.53;4962344;28;45450;-64
2022/11/13 05:12:08;;;;;;;;;34.00;31.50;;;;;11.03;62.48;101772.66;4962344;28;45302;-63
2022/11/13 05:14:37;;;;;;;;;39.00;32.00;;;;;11.06;62.58;101770.03;4962397;28;45525;-63
2022/11/13 05:17:04;;;;;;;;;36.50;34.00;;;;;11.03;62.55;101765.66;4962068;28;46402;-63
2022/11/13 05:19:31;;;;;;;;;40.00;34.75;;;;;11.03;62.44;101763.03;4962163;28;45562;-64
2022/11/13 05:21:56;;;;;;;;;31.75;31.75;;;;;11.03;62.57;101773.56;4962287;28;45305;-64
2022/11/13 05:24:22;;;;;;;;;39.50;34.00;;;;;11.02;62.59;101774.44;4961055;28;45585;-63
2022/11/13 05:26:47;;;;;;;;;36.75;33.25;;;;;10.96;62.47;101761.28;4961830;28;45307;-63
2022/11/13 05:29:13;;;;;;;;;38.50;32.00;;;;;11.02;62.58;101763.03;4962201;28;45271;-63
2022/11/13 05:31:38;;;;;;;;;44.75;36.75;;;;;11.00;62.50;101755.13;4962030;28;45290;-63
2022/11/13 05:34:04;;;;;;;;;34.25;31.50;;;;;10.99;62.47;101763.03;4962263;28;45472;-64
2022/11/13 05:36:30;;;;;;;;;42.00;33.75;;;;;10.97;62.50;101751.63;4961815;28;45339;-63
2022/11/13 05:38:55;;;;;;;;;36.75;33.25;;;;;10.96;62.58;101749.88;4961957;28;45156;-64
2022/11/13 05:41:21;;;;;;;;;37.00;33.75;;;;;10.93;62.48;101742.88;4961952;28;45290;-64
2022/11/13 05:43:47;;;;;;;;;37.75;32.00;;;;;10.92;62.49;101746.38;4961981;28;45266;-64
2022/11/13 05:46:18;;;;;;;;;31.25;30.00;;;;;10.89;62.59;101738.47;4961653;28;45274;-64
2022/11/13 05:48:45;;;;;;;;;37.75;34.00;;;;;10.88;62.42;101734.97;4960537;28;45261;-63
2022/11/13 05:51:16;;;;;;;;;38.50;33.75;;;;;10.87;62.51;101727.94;4961821;28;45256;-63
2022/11/13 05:53:42;;;;;;;;;34.75;32.25;;;;;10.83;62.37;101730.56;4961705;28;45303;-64
2022/11/13 05:56:18;;;;;;;;;38.75;34.25;;;;;10.84;62.53;101727.97;4961421;28;45270;-64
2022/11/13 05:58:44;;;;;;;;;37.75;34.00;;;;;10.82;62.48;101727.06;4961583;28;45576;-64
2022/11/13 06:01:17;;;;;;;;;35.50;32.25;;;;;10.80;62.40;101726.19;4961666;28;45262;-65
2022/11/13 06:03:43;;;;;;;;;41.00;34.00;;;;;10.79;62.43;101723.56;4961211;28;45464;-65
2022/11/13 06:06:14;;;;;;;;;41.75;34.00;;;;;10.77;62.57;101720.94;4961161;28;45310;-64
2022/11/13 06:08:40;;;;;;;;;42.75;36.50;;;;;10.76;62.51;101713.06;4959953;28;45405;-65
2022/11/13 06:11:08;;;;;;;;;42.00;34.50;;;;;10.73;62.48;101706.06;4961512;28;45333;-65
2022/11/13 06:13:34;;;;;;;;;41.25;34.00;;;;;10.72;62.48;101709.56;4961444;28;45331;-65
2022/11/13 06:16:11;;;;;;;;;35.50;31.50;;;;;10.70;62.45;101704.31;4961391;28;46187;-65
2022/11/13 06:18:37;;;;;;;;;35.25;32.25;;;;;10.69;62.58;101704.28;4961232;28;45513;-65
2022/11/13 06:21:05;;;;;;;;;35.75;31.75;;;;;10.65;62.67;101699.91;4961056;28;45251;-65
2022/11/13 06:23:33;;;;;;;;;30.50;30.00;;;;;10.68;62.73;101705.19;4961103;28;45319;-64
2022/11/13 06:26:07;;;;;;;;;38.50;30.75;;;;;10.67;62.56;101699.03;4960320;28;45422;-64
2022/11/13 06:28:34;;;;;;;;;32.25;29.25;;;;;10.66;62.49;101697.25;4961094;28;45375;-64
2022/11/13 06:31:04;;;;;;;;;32.25;30.00;;;;;10.65;62.40;101699.91;4961507;28;45293;-64
2022/11/13 06:33:30;;;;;;;;;37.50;32.75;;;;;10.61;62.44;101691.13;4961039;28;45449;-64
2022/11/13 06:35:55;;;;;;;;;55.00;44.50;;;;;10.60;62.70;101694.63;4961126;28;45306;-64
2022/11/13 06:38:21;;;;;;;;;44.75;35.00;;;;;10.60;62.51;101701.66;4959555;28;45381;-63
2022/11/13 06:40:46;;;;;;;;;35.25;30.75;;;;;10.58;62.52;101699.03;4961060;28;45478;-64
2022/11/13 06:43:11;;;;;;;;;46.00;34.25;;;;;10.57;62.60;101690.25;4960960;28;45252;-63
2022/11/13 06:45:37;;;;;;;;;35.00;32.75;;;;;10.55;62.59;101694.66;4960806;28;45315;-63
2022/11/13 06:48:02;;;;;;;;;41.75;34.25;;;;;10.52;62.49;101694.63;4960435;28;57904;-63
2022/11/13 06:50:28;;;;;;;;;31.50;30.25;;;;;10.52;62.47;101692.00;4959875;28;45301;-63
2022/11/13 06:52:53;;;;;;;;;36.00;33.00;;;;;10.51;62.63;101695.50;4960615;28;45591;-63
2022/11/13 06:55:19;;;;;;;;;39.00;35.00;;;;;10.49;62.65;101685.84;4960957;28;45355;-63
2022/11/13 06:57:44;;;;;;;;;40.00;32.25;;;;;10.48;62.71;101690.25;4960357;28;51919;-63
2022/11/13 07:00:10;;;;;;;;;34.50;31.25;;;;;10.47;62.65;101695.50;4960441;28;49554;-62
2022/11/13 07:02:36;;;;;;;;;34.25;33.25;;;;;10.46;62.39;101694.59;4960599;28;45476;-65
2022/11/13 07:05:01;;;;;;;;;34.00;32.00;;;;;10.44;62.65;101693.75;4960464;28;46290;-65
2022/11/13 07:07:26;;;;;;;;;35.75;32.25;;;;;10.43;62.67;101696.34;4960396;28;45347;-64
2022/11/13 07:09:51;;;;;;;;;56.50;45.50;;;;;10.39;62.54;101691.09;4959109;28;48818;-63
2022/11/13 07:12:17;;;;;;;;;38.00;32.25;;;;;10.40;62.65;101695.50;4960327;28;47679;-63
2022/11/13 07:14:42;;;;;;;;;68.75;53.25;;;;;10.40;62.48;101692.88;4960229;28;45996;-63
2022/11/13 07:17:07;;;;;;;;;45.25;37.00;;;;;10.40;62.48;101689.34;4962407;28;45181;-64
2022/11/13 07:19:33;;;;;;;;;37.00;34.50;;;;;10.41;62.57;101685.84;4963957;28;45208;-62
2022/11/13 07:21:58;;;;;;;;;35.00;33.00;;;;;10.39;62.71;101677.09;4963883;28;46595;-64
2022/11/13 07:24:23;;;;;;;;;32.75;31.25;;;;;10.37;62.67;101682.34;4962707;28;53060;-59
2022/11/13 07:26:49;;;;;;;;;35.75;33.50;;;;;10.35;62.89;101681.44;4963659;28;45355;-57
2022/11/13 07:29:14;;;;;;;;;36.00;28.75;;;;;10.36;62.55;101691.13;4964297;28;45334;-58
2022/11/13 07:31:39;;;;;;;;;30.25;29.25;;;;;10.33;62.57;101688.44;4962454;28;45473;-61
2022/11/13 07:34:05;;;;;;;;;34.25;32.00;;;;;10.33;62.71;101679.69;4963803;28;50036;-62
2022/11/13 07:36:30;;;;;;;;;33.75;32.00;;;;;10.35;62.56;101676.19;4963808;28;45584;-63
2022/11/13 07:38:55;;;;;;;;;31.75;30.75;;;;;10.35;62.59;101684.06;4964079;28;45312;-63
2022/11/13 07:41:21;;;;;;;;;38.75;32.00;;;;;10.36;62.73;101682.34;4963470;28;45331;-65
2022/11/13 07:43:46;;;;;;;;;36.00;31.00;;;;;10.36;62.61;101675.34;4962067;28;47200;-65
2022/11/13 07:46:11;;;;;;;;;34.50;29.00;;;;;10.37;62.73;101676.22;4963596;28;45424;-64
2022/11/13 07:48:37;;;;;;;;;32.50;30.25;;;;;10.37;62.51;101673.59;4963755;28;45244;-63
2022/11/13 07:51:02;;;;;;;;;32.00;31.75;;;;;10.39;62.88;101675.34;4963612;28;45275;-62
2022/11/13 07:53:28;;;;;;;;;32.75;26.00;;;;;10.40;62.72;101673.56;4963241;28;46213;-65
2022/11/13 07:55:54;;;;;;;;;35.00;32.75;;;;;10.37;62.62;101663.09;4963386;28;45342;-66
2022/11/13 07:58:19;;;;;;;;;17.00;15.50;;;;;10.42;62.83;101665.72;4963503;28;46007;-64
2022/11/13 08:00:44;;;;;;;;;36.75;32.00;;;;;10.45;62.75;101666.56;4962966;28;45340;-64
2022/11/13 08:03:15;;;;;;;;;34.75;30.00;;;;;10.47;62.82;101666.59;4963483;28;45144;-65
2022/11/13 08:05:41;;;;;;;;;28.25;26.25;;;;;10.48;62.92;101669.22;4962965;28;45350;-65
2022/11/13 08:08:10;;;;;;;;;30.25;29.25;;;;;10.49;62.92;101665.72;4961896;28;45333;-61
2022/11/13 08:10:35;;;;;;;;;32.25;29.75;;;;;10.56;62.90;101664.88;4962964;28;45271;-61
2022/11/13 08:13:03;;;;;;;;;31.25;27.75;;;;;10.60;63.11;101665.72;4949530;28;45527;-63
2022/11/13 08:15:29;;;;;;;;;26.50;23.25;;;;;10.65;62.97;101658.69;4956101;28;45542;-63
2022/11/13 08:17:56;;;;;;;;;33.25;30.75;;;;;10.71;62.97;101669.22;4962686;28;45263;-60
2022/11/13 08:20:22;;;;;;;;;31.00;29.00;;;;;10.77;62.75;101659.56;4961804;28;45313;-60
2022/11/13 08:22:47;;;;;;;;;30.75;28.00;;;;;10.84;63.13;101663.97;4963119;28;45377;-60
2022/11/13 08:25:13;;;;;;;;;33.75;29.00;;;;;10.87;63.20;101654.31;4961652;28;45518;-60
2022/11/13 08:27:38;;;;;;;;;30.50;29.00;;;;;10.93;63.16;101652.56;4962928;28;45450;-61
2022/11/13 08:30:04;;;;;;;;;35.75;30.75;;;;;11.02;63.23;101661.31;4953018;28;46200;-60
2022/11/13 08:32:29;;;;;;;;;32.50;29.00;;;;;11.10;63.13;101666.56;4963169;28;46629;-60
2022/11/13 08:34:54;;;;;;;;;30.00;28.75;;;;;11.13;63.19;101655.16;4962801;28;45220;-60
2022/11/13 08:37:20;;;;;;;;;31.50;29.50;;;;;11.24;63.17;101658.66;4963001;28;45262;-60
2022/11/13 08:39:45;;;;;;;;;32.50;29.50;;;;;11.32;63.25;101651.63;4962718;28;45487;-60
2022/11/13 08:42:10;;;;;;;;;31.00;30.00;;;;;11.43;63.09;101653.34;4962895;28;46310;-60
2022/11/13 08:44:35;;;;;;;;;29.00;27.50;;;;;11.52;63.13;101650.66;4962690;28;45232;-60
2022/11/13 08:47:01;;;;;;;;;38.25;31.50;;;;;11.60;63.22;101650.66;4959973;28;45208;-60
2022/11/13 08:49:26;;;;;;;;;34.75;29.00;;;;;11.70;63.07;101647.09;4962496;28;45555;-61
2022/11/13 08:51:51;;;;;;;;;34.00;30.25;;;;;11.79;63.21;101646.19;4962578;28;48574;-60
2022/11/13 08:54:17;;;;;;;;;29.75;28.50;;;;;11.89;63.23;101647.88;4962557;28;45253;-60
2022/11/13 08:56:42;;;;;;;;;30.75;29.75;;;;;12.00;63.13;101642.59;4962897;28;45299;-60
2022/11/13 08:59:08;;;;;;;;;34.75;31.00;;;;;12.10;63.17;101636.38;4962396;28;45434;-60
2022/11/13 09:01:34;;;;;;;;;38.50;32.25;;;;;12.20;63.20;101631.94;4962625;28;45381;-60
2022/11/13 09:03:59;;;;;;;;;34.75;31.00;;;;;12.31;63.14;101624.84;4962054;28;55386;-60
2022/11/13 09:06:24;;;;;;;;;38.25;29.75;;;;;12.40;63.22;101612.44;4962297;28;45456;-60
2022/11/13 09:08:50;;;;;;;;;32.50;29.50;;;;;12.53;63.20;101614.13;4962303;28;45251;-60
2022/11/13 09:11:15;;;;;;;;;35.25;30.25;;;;;12.65;63.07;101613.13;4961050;28;46625;-60
2022/11/13 09:13:41;;;;;;;;;33.25;30.00;;;;;12.78;63.20;101605.97;4962007;28;45360;-61
2022/11/13 09:16:06;;;;;;;;;34.50;30.00;;;;;12.90;63.39;101605.84;4961255;28;45338;-60
2022/11/13 09:18:32;;;;;;;;;37.75;31.50;;;;;13.05;63.01;101593.41;4962028;28;45311;-60
2022/11/13 09:21:01;;;;;;;;;27.75;25.00;;;;;13.16;63.22;101583.59;4961881;28;45381;-60
2022/11/13 09:23:27;;;;;;;;;30.75;27.25;;;;;13.35;62.87;101592.16;4961942;28;45490;-60
2022/11/13 09:25:52;;;;;;;;;25.50;23.25;;;;;13.52;62.82;101588.47;4961948;28;45533;-60
2022/11/13 09:28:18;;;;;;;;;24.50;23.00;;;;;13.66;63.32;101575.97;4962087;28;45433;-60
2022/11/13 09:30:43;;;;;;;;;28.25;23.75;;;;;13.81;63.16;101582.78;4961926;28;50173;-60
2022/11/13 09:33:14;;;;;;;;;29.25;27.00;;;;;13.97;63.18;101579.03;4962036;28;45251;-60
2022/11/13 09:35:40;;;;;;;;;26.00;25.25;;;;;14.15;62.77;101582.31;4961337;28;45301;-60
2022/11/13 09:38:07;;;;;;;;;25.25;23.75;;;;;14.30;62.91;101575.88;4961082;28;45554;-60
2022/11/13 09:40:57;;;;;;;;;25.75;24.50;;;;;14.45;62.53;101590.59;4961796;28;45391;-60
2022/11/13 09:43:48;;;;;;;;;38.50;33.25;;;;;14.59;62.71;101587.72;4961876;28;45318;-60
2022/11/13 09:46:28;;;;;;;;;23.25;23.25;;;;;14.73;62.67;101587.50;4961872;28;45308;-60
2022/11/13 09:49:00;;;;;;;;;26.00;23.25;;;;;14.83;62.16;101597.06;4961911;28;45339;-62
2022/11/13 09:51:29;;;;;;;;;26.50;24.75;;;;;14.96;61.98;101592.38;4961507;28;46505;-60
2022/11/13 09:53:55;;;;;;;;;26.50;23.50;;;;;15.06;62.05;101590.44;4961764;28;45313;-60
2022/11/13 09:56:34;;;;;;;;;25.25;22.50;;;;;15.18;61.89;101589.31;4961516;28;45232;-60
2022/11/13 09:59:18;;;;;;;;;30.75;29.50;;;;;15.30;61.66;101585.56;4961555;28;45565;-61
2022/11/13 10:02:21;;;;;;;;;40.00;33.50;;;;;15.41;62.19;101583.56;4961859;28;45429;-60
2022/11/13 10:04:50;;;;;;;;;31.00;25.50;;;;;15.51;61.80;101586.88;4960617;28;45290;-60
2022/11/13 10:07:37;;;;;;;;;28.50;26.00;;;;;15.62;62.06;101578.72;4961279;28;45322;-60
2022/11/13 10:10:28;;;;;;;;;30.00;26.00;;;;;15.73;61.80;101584.63;4961375;28;45324;-60
2022/11/13 10:12:57;;;;;;;;;29.75;28.25;;;;;15.83;61.62;101575.59;4955659;28;45709;-61
2022/11/13 10:15:23;;;;;;;;;26.50;25.50;;;;;15.92;61.70;101575.41;4961243;28;45350;-62
2022/11/13 10:18:01;;;;;;;;;26.50;25.00;;;;;16.01;61.71;101569.03;4961625;28;45281;-61
2022/11/13 10:20:29;;;;;;;;;27.75;24.25;;;;;16.11;61.30;101559.03;4961112;28;45695;-61
2022/11/13 10:23:24;;;;;;;;;29.75;29.00;;;;;16.20;61.13;101556.19;4960912;28;46180;-61
2022/11/13 10:25:51;;;;;;;;;30.00;27.00;;;;;16.28;61.06;101545.38;4961088;28;45402;-61
2022/11/13 10:28:24;;;;;;;;;24.75;23.00;;;;;16.41;61.01;101551.22;4961092;28;45468;-61
2022/11/13 10:30:49;;;;;;;;;26.25;25.25;;;;;16.49;60.99;101559.88;4960919;28;45556;-61
2022/11/13 10:33:18;;;;;;;;;22.00;21.75;;;;;16.60;61.10;101556.06;4959618;28;47398;-60
2022/11/13 10:36:12;;;;;;;;;25.50;24.75;;;;;16.70;61.13;101554.91;4961038;28;45372;-61
2022/11/13 10:39:08;;;;;;;;;25.75;24.00;;;;;16.81;61.08;101554.63;4960860;28;45327;-61
2022/11/13 10:41:49;;;;;;;;;25.25;23.25;;;;;16.90;60.95;101547.28;4952214;28;45441;-60
2022/11/13 10:44:21;;;;;;;;;30.50;26.75;;;;;17.03;60.98;101545.19;4960978;28;46216;-60
2022/11/13 10:46:46;;;;;;;;;28.25;25.50;;;;;17.15;60.94;101540.44;4960869;28;45267;-60
2022/11/13 10:49:18;;;;;;;;;25.75;23.00;;;;;17.26;60.79;101538.31;4960792;28;45300;-60
2022/11/13 10:51:43;;;;;;;;;26.25;23.75;;;;;17.40;60.75;101535.25;4959415;28;45622;-60
2022/11/13 10:54:22;;;;;;;;;24.50;23.75;;;;;17.52;60.69;101536.66;4959308;28;46175;-60
2022/11/13 10:56:57;;;;;;;;;30.50;23.50;;;;;17.65;60.16;101527.41;4960811;28;45220;-60
2022/11/13 10:59:22;;;;;;;;;25.25;22.75;;;;;17.81;60.70;101532.22;4960633;28;45394;-60
2022/11/13 11:01:48;;;;;;;;;22.00;19.25;;;;;17.95;60.71;101526.47;4960626;28;45465;-60
2022/11/13 11:04:28;;;;;;;;;27.00;25.25;;;;;18.09;60.69;101521.59;4960865;28;45481;-61
2022/11/13 11:06:54;;;;;;;;;26.00;22.25;;;;;18.21;60.26;101514.13;4957263;28;45478;-61
2022/11/13 11:09:32;;;;;;;;;20.00;18.75;;;;;18.31;60.19;101499.56;4960788;28;45436;-61
2022/11/13 11:12:17;;;;;;;;;22.75;22.00;;;;;18.42;60.09;101500.06;4960529;28;45283;-61